sensor_id;sensor_type;location;lat;lon;timestamp;temperature;humidity
42019;DHT22;27703;51.980;5.848;2022-11-24T00:00:25;8.20;99.90
42019;DHT22;27703;51.980;5.848;2022-11-24T00:02:50;8.20;99.90
42019;DHT22;27703;51.980;5.848;2022-11-24T00:05:16;8.20;99.90
42019;DHT22;27703;51.980;5.848;2022-11-24T00:07:41;8.20;99.90
42019;DHT22;27703;51.980;5.848;2022-11-24T00:10:07;8.30;99.90
42019;DHT22;27703;51.980;5.848;2022-11-24T00:12:33;8.30;99.90
42019;DHT22;27703;51.980;5.848;2022-11-24T00:14:58;8.30;99.90
42019;DHT22;27703;51.980;5.848;2022-11-24T00:17:24;8.30;99.90
42019;DHT22;27703;51.980;5.848;2022-11-24T00:19:49;8.30;99.90
42019;DHT22;27703;51.980;5.848;2022-11-24T00:22:15;8.40;99.90
42019;DHT22;27703;51.980;5.848;2022-11-24T00:24:40;8.30;99.90
42019;DHT22;27703;51.980;5.848;2022-11-24T00:27:07;8.40;99.90
42019;DHT22;27703;51.980;5.848;2022-11-24T00:29:32;8.30;99.90
42019;DHT22;27703;51.980;5.848;2022-11-24T00:31:58;8.40;99.90
42019;DHT22;27703;51.980;5.848;2022-11-24T00:34:23;8.30;99.90
42019;DHT22;27703;51.980;5.848;2022-11-24T00:36:49;8.40;99.90
42019;DHT22;27703;51.980;5.848;2022-11-24T00:39:15;8.40;99.90
42019;DHT22;27703;51.980;5.848;2022-11-24T00:41:41;8.40;99.90
42019;DHT22;27703;51.980;5.848;2022-11-24T00:44:07;8.30;99.90
42019;DHT22;27703;51.980;5.848;2022-11-24T00:46:33;8.30;99.90
42019;DHT22;27703;51.980;5.848;2022-11-24T00:48:59;8.40;99.90
42019;DHT22;27703;51.980;5.848;2022-11-24T00:51:26;8.30;99.90
42019;DHT22;27703;51.980;5.848;2022-11-24T00:53:53;8.40;99.90
42019;DHT22;27703;51.980;5.848;2022-11-24T00:56:19;8.40;99.90
42019;DHT22;27703;51.980;5.848;2022-11-24T00:58:45;8.40;99.90
42019;DHT22;27703;51.980;5.848;2022-11-24T01:01:13;8.40;99.90
42019;DHT22;27703;51.980;5.848;2022-11-24T01:03:39;8.40;99.90
42019;DHT22;27703;51.980;5.848;2022-11-24T01:06:07;8.40;99.90
42019;DHT22;27703;51.980;5.848;2022-11-24T01:08:35;8.40;99.90
42019;DHT22;27703;51.980;5.848;2022-11-24T01:13:35;8.40;99.90
42019;DHT22;27703;51.980;5.848;2022-11-24T01:16:01;8.40;99.90
42019;DHT22;27703;51.980;5.848;2022-11-24T01:18:26;8.40;99.90
42019;DHT22;27703;51.980;5.848;2022-11-24T01:20:52;8.40;99.90
42019;DHT22;27703;51.980;5.848;2022-11-24T01:23:17;8.40;99.90
42019;DHT22;27703;51.980;5.848;2022-11-24T01:25:43;8.40;99.90
42019;DHT22;27703;51.980;5.848;2022-11-24T01:28:08;8.40;99.90
42019;DHT22;27703;51.980;5.848;2022-11-24T01:30:34;8.30;99.90
42019;DHT22;27703;51.980;5.848;2022-11-24T01:32:59;8.30;99.90
42019;DHT22;27703;51.980;5.848;2022-11-24T01:35:25;8.30;99.90
42019;DHT22;27703;51.980;5.848;2022-11-24T01:37:51;8.30;99.90
42019;DHT22;27703;51.980;5.848;2022-11-24T01:40:16;8.30;99.90
42019;DHT22;27703;51.980;5.848;2022-11-24T01:42:47;8.30;99.90
42019;DHT22;27703;51.980;5.848;2022-11-24T01:45:37;8.30;99.90
42019;DHT22;27703;51.980;5.848;2022-11-24T01:51:14;8.40;99.90
42019;DHT22;27703;51.980;5.848;2022-11-24T01:53:43;8.40;99.90
42019;DHT22;27703;51.980;5.848;2022-11-24T01:56:10;8.40;99.90
42019;DHT22;27703;51.980;5.848;2022-11-24T01:58:38;8.30;99.90
42019;DHT22;27703;51.980;5.848;2022-11-24T02:01:04;8.30;99.90
42019;DHT22;27703;51.980;5.848;2022-11-24T02:03:34;8.30;99.90
42019;DHT22;27703;51.980;5.848;2022-11-24T02:06:11;8.30;99.90
42019;DHT22;27703;51.980;5.848;2022-11-24T02:08:50;8.30;99.90
42019;DHT22;27703;51.980;5.848;2022-11-24T02:11:18;8.30;99.90
42019;DHT22;27703;51.980;5.848;2022-11-24T02:13:47;8.30;99.90
42019;DHT22;27703;51.980;5.848;2022-11-24T02:16:13;8.30;99.90
42019;DHT22;27703;51.980;5.848;2022-11-24T02:18:39;8.30;99.90
42019;DHT22;27703;51.980;5.848;2022-11-24T02:21:06;8.30;99.90
42019;DHT22;27703;51.980;5.848;2022-11-24T02:26:48;8.30;99.90
42019;DHT22;27703;51.980;5.848;2022-11-24T02:29:16;8.30;99.90
42019;DHT22;27703;51.980;5.848;2022-11-24T02:31:47;8.30;99.90
42019;DHT22;27703;51.980;5.848;2022-11-24T02:34:14;8.30;99.90
42019;DHT22;27703;51.980;5.848;2022-11-24T02:36:39;8.40;99.90
42019;DHT22;27703;51.980;5.848;2022-11-24T02:39:10;8.40;99.90
42019;DHT22;27703;51.980;5.848;2022-11-24T02:41:36;8.40;99.90
42019;DHT22;27703;51.980;5.848;2022-11-24T02:44:03;8.30;99.90
42019;DHT22;27703;51.980;5.848;2022-11-24T02:46:28;8.30;99.90
42019;DHT22;27703;51.980;5.848;2022-11-24T02:48:54;8.30;99.90
42019;DHT22;27703;51.980;5.848;2022-11-24T02:51:19;8.30;99.90
42019;DHT22;27703;51.980;5.848;2022-11-24T02:53:45;8.30;99.90
42019;DHT22;27703;51.980;5.848;2022-11-24T02:56:11;8.30;99.90
42019;DHT22;27703;51.980;5.848;2022-11-24T02:58:37;8.20;99.90
42019;DHT22;27703;51.980;5.848;2022-11-24T03:01:03;8.20;99.90
42019;DHT22;27703;51.980;5.848;2022-11-24T03:03:28;8.20;99.90
42019;DHT22;27703;51.980;5.848;2022-11-24T03:05:54;8.10;99.90
42019;DHT22;27703;51.980;5.848;2022-11-24T03:08:20;8.10;99.90
42019;DHT22;27703;51.980;5.848;2022-11-24T03:10:45;8.10;99.90
42019;DHT22;27703;51.980;5.848;2022-11-24T03:13:11;8.20;99.90
42019;DHT22;27703;51.980;5.848;2022-11-24T03:15:36;8.10;99.90
42019;DHT22;27703;51.980;5.848;2022-11-24T03:18:02;8.10;99.90
42019;DHT22;27703;51.980;5.848;2022-11-24T03:20:28;8.10;99.90
42019;DHT22;27703;51.980;5.848;2022-11-24T03:22:55;8.20;99.90
42019;DHT22;27703;51.980;5.848;2022-11-24T03:25:20;8.20;99.90
42019;DHT22;27703;51.980;5.848;2022-11-24T03:27:46;8.20;99.90
42019;DHT22;27703;51.980;5.848;2022-11-24T03:30:12;8.20;99.90
42019;DHT22;27703;51.980;5.848;2022-11-24T03:32:38;8.20;99.90
42019;DHT22;27703;51.980;5.848;2022-11-24T03:35:04;8.20;99.90
42019;DHT22;27703;51.980;5.848;2022-11-24T03:37:30;8.30;99.90
42019;DHT22;27703;51.980;5.848;2022-11-24T03:39:56;8.30;99.90
42019;DHT22;27703;51.980;5.848;2022-11-24T03:42:21;8.30;99.90
42019;DHT22;27703;51.980;5.848;2022-11-24T03:44:47;8.30;99.90
42019;DHT22;27703;51.980;5.848;2022-11-24T03:47:13;8.30;99.90
42019;DHT22;27703;51.980;5.848;2022-11-24T03:49:38;8.40;99.90
42019;DHT22;27703;51.980;5.848;2022-11-24T03:52:05;8.50;99.90
42019;DHT22;27703;51.980;5.848;2022-11-24T03:54:31;8.50;99.90
42019;DHT22;27703;51.980;5.848;2022-11-24T03:56:57;8.50;99.90
42019;DHT22;27703;51.980;5.848;2022-11-24T03:59:22;8.50;99.90
42019;DHT22;27703;51.980;5.848;2022-11-24T04:01:48;8.50;99.90
42019;DHT22;27703;51.980;5.848;2022-11-24T04:04:13;8.50;99.90
42019;DHT22;27703;51.980;5.848;2022-11-24T04:06:39;8.50;99.90
42019;DHT22;27703;51.980;5.848;2022-11-24T04:09:05;8.40;99.90
42019;DHT22;27703;51.980;5.848;2022-11-24T04:11:31;8.40;99.90
42019;DHT22;27703;51.980;5.848;2022-11-24T04:14:15;8.40;99.90
42019;DHT22;27703;51.980;5.848;2022-11-24T04:16:42;8.30;99.90
42019;DHT22;27703;51.980;5.848;2022-11-24T04:19:08;8.30;99.90
42019;DHT22;27703;51.980;5.848;2022-11-24T04:21:33;8.20;99.90
42019;DHT22;27703;51.980;5.848;2022-11-24T04:23:59;8.20;99.90
42019;DHT22;27703;51.980;5.848;2022-11-24T04:26:24;8.20;99.90
42019;DHT22;27703;51.980;5.848;2022-11-24T04:28:50;8.20;99.90
42019;DHT22;27703;51.980;5.848;2022-11-24T04:31:15;8.20;99.90
42019;DHT22;27703;51.980;5.848;2022-11-24T04:33:41;8.20;99.90
42019;DHT22;27703;51.980;5.848;2022-11-24T04:36:06;8.20;99.90
42019;DHT22;27703;51.980;5.848;2022-11-24T04:38:32;8.20;99.90
42019;DHT22;27703;51.980;5.848;2022-11-24T04:41:02;8.20;99.90
42019;DHT22;27703;51.980;5.848;2022-11-24T04:43:28;8.20;99.90
42019;DHT22;27703;51.980;5.848;2022-11-24T04:45:54;8.20;99.90
42019;DHT22;27703;51.980;5.848;2022-11-24T04:48:19;8.20;99.90
42019;DHT22;27703;51.980;5.848;2022-11-24T04:50:45;8.20;99.90
42019;DHT22;27703;51.980;5.848;2022-11-24T04:53:10;8.20;99.90
42019;DHT22;27703;51.980;5.848;2022-11-24T04:55:38;8.20;99.90
42019;DHT22;27703;51.980;5.848;2022-11-24T04:58:07;8.20;99.90
42019;DHT22;27703;51.980;5.848;2022-11-24T05:00:33;8.20;99.90
42019;DHT22;27703;51.980;5.848;2022-11-24T05:02:58;8.30;99.90
42019;DHT22;27703;51.980;5.848;2022-11-24T05:05:24;8.30;99.90
42019;DHT22;27703;51.980;5.848;2022-11-24T05:07:49;8.20;99.90
42019;DHT22;27703;51.980;5.848;2022-11-24T05:10:15;8.30;99.90
42019;DHT22;27703;51.980;5.848;2022-11-24T05:13:00;8.30;99.90
42019;DHT22;27703;51.980;5.848;2022-11-24T05:15:26;8.30;99.90
42019;DHT22;27703;51.980;5.848;2022-11-24T05:17:52;8.40;99.90
42019;DHT22;27703;51.980;5.848;2022-11-24T05:20:17;8.40;99.90
42019;DHT22;27703;51.980;5.848;2022-11-24T05:22:43;8.50;99.90
42019;DHT22;27703;51.980;5.848;2022-11-24T05:25:09;8.50;99.90
42019;DHT22;27703;51.980;5.848;2022-11-24T05:27:35;8.60;99.90
42019;DHT22;27703;51.980;5.848;2022-11-24T05:30:00;8.60;99.90
42019;DHT22;27703;51.980;5.848;2022-11-24T05:32:26;8.60;99.90
42019;DHT22;27703;51.980;5.848;2022-11-24T05:34:51;8.60;99.90
42019;DHT22;27703;51.980;5.848;2022-11-24T05:37:19;8.60;99.90
42019;DHT22;27703;51.980;5.848;2022-11-24T05:39:45;8.60;99.90
42019;DHT22;27703;51.980;5.848;2022-11-24T05:42:10;8.60;99.90
42019;DHT22;27703;51.980;5.848;2022-11-24T05:44:54;8.50;99.90
42019;DHT22;27703;51.980;5.848;2022-11-24T05:47:21;8.50;99.90
42019;DHT22;27703;51.980;5.848;2022-11-24T05:49:47;8.50;99.90
42019;DHT22;27703;51.980;5.848;2022-11-24T05:52:13;8.50;99.90
42019;DHT22;27703;51.980;5.848;2022-11-24T05:54:38;8.50;99.90
42019;DHT22;27703;51.980;5.848;2022-11-24T05:57:04;8.50;99.90
42019;DHT22;27703;51.980;5.848;2022-11-24T05:59:29;8.50;99.90
42019;DHT22;27703;51.980;5.848;2022-11-24T06:01:55;8.40;99.90
42019;DHT22;27703;51.980;5.848;2022-11-24T06:04:20;8.40;99.90
42019;DHT22;27703;51.980;5.848;2022-11-24T06:06:46;8.40;99.90
42019;DHT22;27703;51.980;5.848;2022-11-24T06:09:12;8.40;99.90
42019;DHT22;27703;51.980;5.848;2022-11-24T06:11:37;8.40;99.90
42019;DHT22;27703;51.980;5.848;2022-11-24T06:14:03;8.40;99.90
42019;DHT22;27703;51.980;5.848;2022-11-24T06:16:29;8.40;99.90
42019;DHT22;27703;51.980;5.848;2022-11-24T06:18:54;8.30;99.90
42019;DHT22;27703;51.980;5.848;2022-11-24T06:21:20;8.40;99.90
42019;DHT22;27703;51.980;5.848;2022-11-24T06:23:48;8.40;99.90
42019;DHT22;27703;51.980;5.848;2022-11-24T06:26:14;8.30;99.90
42019;DHT22;27703;51.980;5.848;2022-11-24T06:28:39;8.40;99.90
42019;DHT22;27703;51.980;5.848;2022-11-24T06:31:05;8.30;99.90
42019;DHT22;27703;51.980;5.848;2022-11-24T06:33:36;8.30;99.90
42019;DHT22;27703;51.980;5.848;2022-11-24T06:36:04;8.30;99.90
42019;DHT22;27703;51.980;5.848;2022-11-24T06:38:30;8.30;99.90
42019;DHT22;27703;51.980;5.848;2022-11-24T06:41:03;8.30;99.90
42019;DHT22;27703;51.980;5.848;2022-11-24T06:43:30;8.30;99.90
42019;DHT22;27703;51.980;5.848;2022-11-24T06:45:57;8.20;99.90
42019;DHT22;27703;51.980;5.848;2022-11-24T06:48:24;8.20;99.90
42019;DHT22;27703;51.980;5.848;2022-11-24T06:50:50;8.20;99.90
42019;DHT22;27703;51.980;5.848;2022-11-24T06:53:16;8.10;99.90
42019;DHT22;27703;51.980;5.848;2022-11-24T06:55:41;8.10;99.90
42019;DHT22;27703;51.980;5.848;2022-11-24T06:58:07;8.10;99.90
42019;DHT22;27703;51.980;5.848;2022-11-24T07:00:33;8.10;99.90
42019;DHT22;27703;51.980;5.848;2022-11-24T07:02:59;8.10;99.90
42019;DHT22;27703;51.980;5.848;2022-11-24T07:05:25;8.20;99.90
42019;DHT22;27703;51.980;5.848;2022-11-24T07:07:50;8.20;99.90
42019;DHT22;27703;51.980;5.848;2022-11-24T07:10:16;8.20;99.90
42019;DHT22;27703;51.980;5.848;2022-11-24T07:12:42;8.20;99.90
42019;DHT22;27703;51.980;5.848;2022-11-24T07:15:08;8.20;99.90
42019;DHT22;27703;51.980;5.848;2022-11-24T07:17:37;8.20;99.90
42019;DHT22;27703;51.980;5.848;2022-11-24T07:20:04;8.20;99.90
42019;DHT22;27703;51.980;5.848;2022-11-24T07:22:30;8.20;99.90
42019;DHT22;27703;51.980;5.848;2022-11-24T07:24:56;8.20;99.90
42019;DHT22;27703;51.980;5.848;2022-11-24T07:27:21;8.20;99.90
42019;DHT22;27703;51.980;5.848;2022-11-24T07:29:47;8.20;99.90
42019;DHT22;27703;51.980;5.848;2022-11-24T07:32:12;8.20;99.90
42019;DHT22;27703;51.980;5.848;2022-11-24T07:34:38;8.20;99.90
42019;DHT22;27703;51.980;5.848;2022-11-24T07:37:03;8.20;99.90
42019;DHT22;27703;51.980;5.848;2022-11-24T07:39:29;8.20;99.90
42019;DHT22;27703;51.980;5.848;2022-11-24T07:41:54;8.20;99.90
42019;DHT22;27703;51.980;5.848;2022-11-24T07:44:20;8.20;99.90
42019;DHT22;27703;51.980;5.848;2022-11-24T07:46:45;8.20;99.90
42019;DHT22;27703;51.980;5.848;2022-11-24T07:49:11;8.30;99.90
42019;DHT22;27703;51.980;5.848;2022-11-24T07:51:36;8.30;99.90
42019;DHT22;27703;51.980;5.848;2022-11-24T07:54:02;8.30;99.90
42019;DHT22;27703;51.980;5.848;2022-11-24T07:56:27;8.30;99.90
42019;DHT22;27703;51.980;5.848;2022-11-24T07:58:54;8.30;99.90
42019;DHT22;27703;51.980;5.848;2022-11-24T08:01:19;8.40;99.90
42019;DHT22;27703;51.980;5.848;2022-11-24T08:03:45;8.30;99.90
42019;DHT22;27703;51.980;5.848;2022-11-24T08:06:11;8.30;99.90
42019;DHT22;27703;51.980;5.848;2022-11-24T08:08:37;8.30;99.90
42019;DHT22;27703;51.980;5.848;2022-11-24T08:11:08;8.30;99.90
42019;DHT22;27703;51.980;5.848;2022-11-24T08:13:35;8.40;99.90
42019;DHT22;27703;51.980;5.848;2022-11-24T08:16:05;8.30;99.90
42019;DHT22;27703;51.980;5.848;2022-11-24T08:18:31;8.30;99.90
42019;DHT22;27703;51.980;5.848;2022-11-24T08:20:58;8.30;99.90
42019;DHT22;27703;51.980;5.848;2022-11-24T08:23:24;8.30;99.90
42019;DHT22;27703;51.980;5.848;2022-11-24T08:25:50;8.30;99.90
42019;DHT22;27703;51.980;5.848;2022-11-24T08:28:15;8.40;99.90
42019;DHT22;27703;51.980;5.848;2022-11-24T08:30:41;8.40;99.90
42019;DHT22;27703;51.980;5.848;2022-11-24T08:33:06;8.40;99.90
42019;DHT22;27703;51.980;5.848;2022-11-24T08:35:35;8.40;99.90
42019;DHT22;27703;51.980;5.848;2022-11-24T08:38:01;8.50;99.90
42019;DHT22;27703;51.980;5.848;2022-11-24T08:40:26;8.50;99.90
42019;DHT22;27703;51.980;5.848;2022-11-24T08:42:56;8.50;99.90
42019;DHT22;27703;51.980;5.848;2022-11-24T08:45:22;8.50;99.90
42019;DHT22;27703;51.980;5.848;2022-11-24T08:47:52;8.50;99.90
42019;DHT22;27703;51.980;5.848;2022-11-24T08:50:18;8.50;99.90
42019;DHT22;27703;51.980;5.848;2022-11-24T08:52:43;8.50;99.90
42019;DHT22;27703;51.980;5.848;2022-11-24T08:55:09;8.50;99.90
42019;DHT22;27703;51.980;5.848;2022-11-24T08:57:35;8.50;99.90
42019;DHT22;27703;51.980;5.848;2022-11-24T09:00:02;8.50;99.90
42019;DHT22;27703;51.980;5.848;2022-11-24T09:02:28;8.50;99.90
42019;DHT22;27703;51.980;5.848;2022-11-24T09:04:53;8.50;99.90
42019;DHT22;27703;51.980;5.848;2022-11-24T09:07:19;8.50;99.90
42019;DHT22;27703;51.980;5.848;2022-11-24T09:09:44;8.50;99.90
42019;DHT22;27703;51.980;5.848;2022-11-24T09:12:10;8.50;99.90
42019;DHT22;27703;51.980;5.848;2022-11-24T09:14:35;8.50;99.90
42019;DHT22;27703;51.980;5.848;2022-11-24T09:17:01;8.50;99.90
42019;DHT22;27703;51.980;5.848;2022-11-24T09:19:26;8.50;99.90
42019;DHT22;27703;51.980;5.848;2022-11-24T09:21:52;8.50;99.90
42019;DHT22;27703;51.980;5.848;2022-11-24T09:24:17;8.50;99.90
42019;DHT22;27703;51.980;5.848;2022-11-24T09:26:43;8.50;99.90
42019;DHT22;27703;51.980;5.848;2022-11-24T09:29:09;8.50;99.90
42019;DHT22;27703;51.980;5.848;2022-11-24T09:31:36;8.60;99.90
42019;DHT22;27703;51.980;5.848;2022-11-24T09:34:07;8.60;99.90
42019;DHT22;27703;51.980;5.848;2022-11-24T09:36:33;8.60;99.90
42019;DHT22;27703;51.980;5.848;2022-11-24T09:38:59;8.70;99.90
42019;DHT22;27703;51.980;5.848;2022-11-24T09:49:32;9.10;99.90
42019;DHT22;27703;51.980;5.848;2022-11-24T09:52:02;9.10;99.90
42019;DHT22;27703;51.980;5.848;2022-11-24T09:54:33;9.10;99.90
42019;DHT22;27703;51.980;5.848;2022-11-24T09:57:00;9.10;99.90
42019;DHT22;27703;51.980;5.848;2022-11-24T09:59:29;9.10;99.90
42019;DHT22;27703;51.980;5.848;2022-11-24T10:01:54;9.30;99.90
42019;DHT22;27703;51.980;5.848;2022-11-24T10:04:41;9.30;99.90
42019;DHT22;27703;51.980;5.848;2022-11-24T10:10:03;9.60;99.90
42019;DHT22;27703;51.980;5.848;2022-11-24T10:12:43;9.70;99.90
42019;DHT22;27703;51.980;5.848;2022-11-24T10:15:40;9.70;99.90
42019;DHT22;27703;51.980;5.848;2022-11-24T10:21:10;9.80;99.90
42019;DHT22;27703;51.980;5.848;2022-11-24T10:27:01;10.00;99.90
42019;DHT22;27703;51.980;5.848;2022-11-24T10:29:39;10.10;99.90
42019;DHT22;27703;51.980;5.848;2022-11-24T10:32:16;10.10;99.90
42019;DHT22;27703;51.980;5.848;2022-11-24T10:34:43;10.20;99.90
42019;DHT22;27703;51.980;5.848;2022-11-24T10:39:59;10.30;99.90
42019;DHT22;27703;51.980;5.848;2022-11-24T10:42:33;10.40;99.90
42019;DHT22;27703;51.980;5.848;2022-11-24T10:45:13;10.50;99.90
42019;DHT22;27703;51.980;5.848;2022-11-24T10:47:40;10.60;99.90
42019;DHT22;27703;51.980;5.848;2022-11-24T10:50:30;10.60;99.90
42019;DHT22;27703;51.980;5.848;2022-11-24T10:53:16;10.60;99.90
42019;DHT22;27703;51.980;5.848;2022-11-24T10:58:29;10.70;99.90
42019;DHT22;27703;51.980;5.848;2022-11-24T11:00:58;10.70;99.90
42019;DHT22;27703;51.980;5.848;2022-11-24T11:03:31;10.70;99.90
42019;DHT22;27703;51.980;5.848;2022-11-24T11:06:14;10.70;99.90
42019;DHT22;27703;51.980;5.848;2022-11-24T11:08:40;10.80;99.90
42019;DHT22;27703;51.980;5.848;2022-11-24T11:11:27;10.70;99.90
42019;DHT22;27703;51.980;5.848;2022-11-24T11:13:58;10.80;99.90
42019;DHT22;27703;51.980;5.848;2022-11-24T11:16:31;10.80;99.90
42019;DHT22;27703;51.980;5.848;2022-11-24T11:18:59;10.90;99.90
42019;DHT22;27703;51.980;5.848;2022-11-24T11:21:30;10.90;99.90
42019;DHT22;27703;51.980;5.848;2022-11-24T11:23:57;10.90;99.90
42019;DHT22;27703;51.980;5.848;2022-11-24T11:31:37;11.00;99.90
42019;DHT22;27703;51.980;5.848;2022-11-24T11:37:08;11.20;99.90
42019;DHT22;27703;51.980;5.848;2022-11-24T11:39:30;11.20;99.90
42019;DHT22;27703;51.980;5.848;2022-11-24T11:44:54;11.30;99.90
42019;DHT22;27703;51.980;5.848;2022-11-24T11:47:25;11.40;99.90
42019;DHT22;27703;51.980;5.848;2022-11-24T11:49:52;11.40;99.90
42019;DHT22;27703;51.980;5.848;2022-11-24T11:52:31;11.40;99.90
42019;DHT22;27703;51.980;5.848;2022-11-24T11:57:45;11.50;99.90
42019;DHT22;27703;51.980;5.848;2022-11-24T12:00:19;11.60;99.90
42019;DHT22;27703;51.980;5.848;2022-11-24T12:05:23;11.70;99.90
42019;DHT22;27703;51.980;5.848;2022-11-24T12:25:32;12.10;99.90
42019;DHT22;27703;51.980;5.848;2022-11-24T12:34:16;12.10;99.90
42019;DHT22;27703;51.980;5.848;2022-11-24T12:37:01;12.10;99.90
42019;DHT22;27703;51.980;5.848;2022-11-24T12:42:48;12.10;99.90
42019;DHT22;27703;51.980;5.848;2022-11-24T12:45:17;12.20;99.90
42019;DHT22;27703;51.980;5.848;2022-11-24T12:48:06;12.20;99.90
42019;DHT22;27703;51.980;5.848;2022-11-24T12:50:37;12.30;99.90
42019;DHT22;27703;51.980;5.848;2022-11-24T12:53:22;12.30;99.90
42019;DHT22;27703;51.980;5.848;2022-11-24T12:55:49;12.20;99.90
42019;DHT22;27703;51.980;5.848;2022-11-24T13:01:27;12.30;99.90
42019;DHT22;27703;51.980;5.848;2022-11-24T13:04:03;12.30;99.90
42019;DHT22;27703;51.980;5.848;2022-11-24T13:06:59;12.40;99.90
42019;DHT22;27703;51.980;5.848;2022-11-24T13:09:28;12.40;99.90
42019;DHT22;27703;51.980;5.848;2022-11-24T13:12:09;12.60;99.90
42019;DHT22;27703;51.980;5.848;2022-11-24T13:14:36;13.10;99.90
42019;DHT22;27703;51.980;5.848;2022-11-24T13:17:30;13.40;99.90
42019;DHT22;27703;51.980;5.848;2022-11-24T13:22:48;13.60;99.90
42019;DHT22;27703;51.980;5.848;2022-11-24T13:25:23;13.40;99.90
42019;DHT22;27703;51.980;5.848;2022-11-24T13:27:51;13.20;99.90
42019;DHT22;27703;51.980;5.848;2022-11-24T13:33:17;13.60;99.90
42019;DHT22;27703;51.980;5.848;2022-11-24T13:47:03;14.10;99.90
42019;DHT22;27703;51.980;5.848;2022-11-24T13:49:41;14.10;99.90
42019;DHT22;27703;51.980;5.848;2022-11-24T13:57:50;14.10;99.90
42019;DHT22;27703;51.980;5.848;2022-11-24T14:00:53;14.00;99.90
42019;DHT22;27703;51.980;5.848;2022-11-24T14:03:30;14.10;99.90
42019;DHT22;27703;51.980;5.848;2022-11-24T14:05:57;14.00;99.90
42019;DHT22;27703;51.980;5.848;2022-11-24T14:08:25;13.60;99.90
42019;DHT22;27703;51.980;5.848;2022-11-24T14:10:56;13.30;99.90
42019;DHT22;27703;51.980;5.848;2022-11-24T14:13:25;13.10;99.90
42019;DHT22;27703;51.980;5.848;2022-11-24T14:18:36;12.80;99.90
42019;DHT22;27703;51.980;5.848;2022-11-24T14:21:34;12.60;99.90
42019;DHT22;27703;51.980;5.848;2022-11-24T14:24:23;12.50;99.90
42019;DHT22;27703;51.980;5.848;2022-11-24T14:26:49;12.40;99.90
42019;DHT22;27703;51.980;5.848;2022-11-24T14:29:22;12.30;99.90
42019;DHT22;27703;51.980;5.848;2022-11-24T14:32:12;12.20;99.90
42019;DHT22;27703;51.980;5.848;2022-11-24T14:34:40;12.20;99.90
42019;DHT22;27703;51.980;5.848;2022-11-24T14:37:08;12.10;99.90
42019;DHT22;27703;51.980;5.848;2022-11-24T14:39:39;12.00;99.90
42019;DHT22;27703;51.980;5.848;2022-11-24T14:42:24;12.00;99.90
42019;DHT22;27703;51.980;5.848;2022-11-24T14:44:59;11.90;99.90
42019;DHT22;27703;51.980;5.848;2022-11-24T14:47:31;11.90;99.90
42019;DHT22;27703;51.980;5.848;2022-11-24T14:50:06;11.80;99.90
42019;DHT22;27703;51.980;5.848;2022-11-24T14:52:33;11.80;99.90
42019;DHT22;27703;51.980;5.848;2022-11-24T14:54:59;11.70;99.90
42019;DHT22;27703;51.980;5.848;2022-11-24T14:57:36;11.60;99.90
42019;DHT22;27703;51.980;5.848;2022-11-24T15:00:15;11.50;99.90
42019;DHT22;27703;51.980;5.848;2022-11-24T15:05:13;11.40;99.90
42019;DHT22;27703;51.980;5.848;2022-11-24T15:07:40;11.40;99.90
42019;DHT22;27703;51.980;5.848;2022-11-24T15:12:51;11.40;99.90
42019;DHT22;27703;51.980;5.848;2022-11-24T15:15:19;11.30;99.90
42019;DHT22;27703;51.980;5.848;2022-11-24T15:17:47;11.20;99.90
42019;DHT22;27703;51.980;5.848;2022-11-24T15:22:48;11.10;99.90
42019;DHT22;27703;51.980;5.848;2022-11-24T15:25:27;11.10;99.90
42019;DHT22;27703;51.980;5.848;2022-11-24T15:27:53;11.00;99.90
42019;DHT22;27703;51.980;5.848;2022-11-24T15:30:19;11.00;99.90
42019;DHT22;27703;51.980;5.848;2022-11-24T15:32:55;10.90;99.90
42019;DHT22;27703;51.980;5.848;2022-11-24T15:35:28;10.90;99.90
42019;DHT22;27703;51.980;5.848;2022-11-24T15:37:53;10.80;99.90
42019;DHT22;27703;51.980;5.848;2022-11-24T15:40:19;10.80;99.90
42019;DHT22;27703;51.980;5.848;2022-11-24T15:42:55;10.80;99.90
42019;DHT22;27703;51.980;5.848;2022-11-24T15:45:23;10.80;99.90
42019;DHT22;27703;51.980;5.848;2022-11-24T15:47:49;10.70;99.90
42019;DHT22;27703;51.980;5.848;2022-11-24T15:50:15;10.70;99.90
42019;DHT22;27703;51.980;5.848;2022-11-24T15:52:41;10.70;99.90
42019;DHT22;27703;51.980;5.848;2022-11-24T15:55:16;10.70;99.90
42019;DHT22;27703;51.980;5.848;2022-11-24T15:57:42;10.60;99.90
42019;DHT22;27703;51.980;5.848;2022-11-24T16:00:16;10.60;99.90
42019;DHT22;27703;51.980;5.848;2022-11-24T16:02:41;10.50;99.90
42019;DHT22;27703;51.980;5.848;2022-11-24T16:05:07;10.40;99.90
42019;DHT22;27703;51.980;5.848;2022-11-24T16:07:33;10.50;99.90
42019;DHT22;27703;51.980;5.848;2022-11-24T16:09:59;10.50;99.90
42019;DHT22;27703;51.980;5.848;2022-11-24T16:12:24;10.50;99.90
42019;DHT22;27703;51.980;5.848;2022-11-24T16:14:49;10.40;99.90
42019;DHT22;27703;51.980;5.848;2022-11-24T16:17:15;10.40;99.90
42019;DHT22;27703;51.980;5.848;2022-11-24T16:19:41;10.30;99.90
42019;DHT22;27703;51.980;5.848;2022-11-24T16:22:06;10.30;99.90
42019;DHT22;27703;51.980;5.848;2022-11-24T16:24:32;10.20;99.90
42019;DHT22;27703;51.980;5.848;2022-11-24T16:26:57;10.20;99.90
42019;DHT22;27703;51.980;5.848;2022-11-24T16:29:23;10.20;99.90
42019;DHT22;27703;51.980;5.848;2022-11-24T16:31:50;10.10;99.90
42019;DHT22;27703;51.980;5.848;2022-11-24T16:34:16;10.10;99.90
42019;DHT22;27703;51.980;5.848;2022-11-24T16:36:41;10.10;99.90
42019;DHT22;27703;51.980;5.848;2022-11-24T16:39:07;10.00;99.90
42019;DHT22;27703;51.980;5.848;2022-11-24T16:41:32;10.00;99.90
42019;DHT22;27703;51.980;5.848;2022-11-24T16:43:58;10.00;99.90
42019;DHT22;27703;51.980;5.848;2022-11-24T16:46:24;10.00;99.90
42019;DHT22;27703;51.980;5.848;2022-11-24T16:48:51;10.00;99.90
42019;DHT22;27703;51.980;5.848;2022-11-24T16:51:19;10.00;99.90
42019;DHT22;27703;51.980;5.848;2022-11-24T16:53:45;9.90;99.90
42019;DHT22;27703;51.980;5.848;2022-11-24T16:56:11;9.90;99.90
42019;DHT22;27703;51.980;5.848;2022-11-24T16:58:38;9.90;99.90
42019;DHT22;27703;51.980;5.848;2022-11-24T17:01:13;9.80;99.90
42019;DHT22;27703;51.980;5.848;2022-11-24T17:03:39;9.80;99.90
42019;DHT22;27703;51.980;5.848;2022-11-24T17:06:06;9.80;99.90
42019;DHT22;27703;51.980;5.848;2022-11-24T17:08:33;9.80;99.90
42019;DHT22;27703;51.980;5.848;2022-11-24T17:11:17;9.80;99.90
42019;DHT22;27703;51.980;5.848;2022-11-24T17:13:44;9.80;99.90
42019;DHT22;27703;51.980;5.848;2022-11-24T17:16:15;9.80;99.90
42019;DHT22;27703;51.980;5.848;2022-11-24T17:18:41;9.80;99.90
42019;DHT22;27703;51.980;5.848;2022-11-24T17:21:11;9.70;99.90
42019;DHT22;27703;51.980;5.848;2022-11-24T17:23:37;9.70;99.90
42019;DHT22;27703;51.980;5.848;2022-11-24T17:26:04;9.70;99.90
42019;DHT22;27703;51.980;5.848;2022-11-24T17:28:30;9.70;99.90
42019;DHT22;27703;51.980;5.848;2022-11-24T17:30:56;9.70;99.90
42019;DHT22;27703;51.980;5.848;2022-11-24T17:33:21;9.70;99.90
42019;DHT22;27703;51.980;5.848;2022-11-24T17:35:47;9.70;99.90
42019;DHT22;27703;51.980;5.848;2022-11-24T17:38:12;9.70;99.90
42019;DHT22;27703;51.980;5.848;2022-11-24T17:40:38;9.70;99.90